createdAt,value
2016-08-20T00:00:50.405Z,1000.25
2016-08-20T00:01:49.910Z,1000.26
2016-08-20T00:02:50.083Z,1000.23
2016-08-20T00:03:49.608Z,1000.24
2016-08-20T00:04:49.680Z,1000.24
2016-08-20T00:05:50.346Z,1000.2
2016-08-20T00:06:50.228Z,1000.21
2016-08-20T00:07:49.998Z,1000.23
2016-08-20T00:08:50.025Z,1000.22
2016-08-20T00:09:50.085Z,1000.24
2016-08-20T00:10:50.587Z,1000.24
2016-08-20T00:11:50.118Z,1000.22
2016-08-20T00:12:50.154Z,1000.26
2016-08-20T00:13:50.014Z,1000.27
2016-08-20T00:14:50.142Z,1000.27
2016-08-20T00:15:50.420Z,1000.31
2016-08-20T00:16:50.635Z,1000.31
2016-08-20T00:17:50.539Z,1000.3
2016-08-20T00:18:50.584Z,1000.32
2016-08-20T00:19:50.309Z,1000.29
2016-08-20T00:20:50.292Z,1000.3
2016-08-20T00:21:50.135Z,1000.28
2016-08-20T00:22:50.226Z,1000.29
2016-08-20T00:23:50.413Z,1000.27
2016-08-20T00:24:50.992Z,1000.3
2016-08-20T00:25:50.491Z,1000.3
2016-08-20T00:26:50.431Z,1000.35
2016-08-20T00:27:50.869Z,1000.32
2016-08-20T00:28:50.619Z,1000.3
2016-08-20T00:29:50.925Z,1000.36
2016-08-20T00:30:50.670Z,1000.37
2016-08-20T00:31:50.769Z,1000.32
2016-08-20T00:32:50.449Z,1000.37
2016-08-20T00:33:51.053Z,1000.33
2016-08-20T00:34:50.822Z,1000.4
2016-08-20T00:35:50.619Z,1000.39
2016-08-20T00:36:50.908Z,1000.39
2016-08-20T00:37:50.665Z,1000.41
2016-08-20T00:38:50.975Z,1000.37
2016-08-20T00:39:50.873Z,1000.29
2016-08-20T00:40:51.318Z,1000.31
2016-08-20T00:41:50.755Z,1000.37
2016-08-20T00:42:51.311Z,1000.33
2016-08-20T00:43:51.154Z,1000.32
2016-08-20T00:44:50.786Z,1000.32
2016-08-20T00:45:51.561Z,1000.31
2016-08-20T00:46:51.060Z,1000.37
2016-08-20T00:47:51.011Z,1000.4
2016-08-20T00:48:51.120Z,1000.39
2016-08-20T00:49:50.968Z,1000.42
2016-08-20T00:50:51.773Z,1000.42
2016-08-20T00:51:51.179Z,1000.41
2016-08-20T00:52:51.178Z,1000.43
2016-08-20T00:53:51.185Z,1000.42
2016-08-20T00:54:51.110Z,1000.36
2016-08-20T00:55:51.115Z,1000.37
2016-08-20T00:56:51.182Z,1000.34
2016-08-20T00:57:51.645Z,1000.35
2016-08-20T00:58:51.182Z,1000.34
2016-08-20T00:59:52.676Z,1000.37
2016-08-20T01:00:51.400Z,1000.41
2016-08-20T01:01:51.985Z,1000.38
2016-08-20T01:02:51.670Z,1000.42
2016-08-20T01:03:51.316Z,1000.42
2016-08-20T01:04:51.940Z,1000.42
2016-08-20T01:05:51.806Z,1000.43
2016-08-20T01:06:52.047Z,1000.44
2016-08-20T01:07:51.783Z,1000.42
2016-08-20T01:08:51.828Z,1000.46
2016-08-20T01:09:51.537Z,1000.45
2016-08-20T01:10:51.441Z,1000.48
2016-08-20T01:11:51.380Z,1000.44
2016-08-20T01:12:51.723Z,1000.47
2016-08-20T01:13:51.384Z,1000.45
2016-08-20T01:14:52.470Z,1000.5
2016-08-20T01:15:52.243Z,1000.46
2016-08-20T01:16:52.073Z,1000.41
2016-08-20T01:17:51.672Z,1000.44
2016-08-20T01:18:51.688Z,1000.44
2016-08-20T01:19:51.873Z,1000.45
2016-08-20T01:20:51.598Z,1000.45
2016-08-20T01:21:51.900Z,1000.43
2016-08-20T01:22:52.232Z,1000.46
2016-08-20T01:23:51.865Z,1000.49
2016-08-20T01:24:51.882Z,1000.48
2016-08-20T01:25:51.998Z,1000.49
2016-08-20T01:26:51.948Z,1000.47
2016-08-20T01:27:51.957Z,1000.47
2016-08-20T01:28:51.821Z,1000.43
2016-08-20T01:29:53.387Z,1000.44
2016-08-20T01:30:52.225Z,1000.44
2016-08-20T01:31:52.137Z,1000.38
2016-08-20T01:32:52.339Z,1000.38
2016-08-20T01:33:52.515Z,1000.42
2016-08-20T01:34:53.246Z,1000.44
2016-08-20T01:35:52.365Z,1000.44
2016-08-20T01:36:52.703Z,1000.46
2016-08-20T01:37:52.418Z,1000.42
2016-08-20T01:38:52.487Z,1000.38
2016-08-20T01:39:52.469Z,1000.42
2016-08-20T01:40:52.329Z,1000.4
2016-08-20T01:41:52.512Z,1000.39
2016-08-20T01:42:52.614Z,1000.36
2016-08-20T01:43:52.441Z,1000.38
2016-08-20T01:44:52.278Z,1000.37
2016-08-20T01:45:52.776Z,1000.34
2016-08-20T01:46:53.244Z,1000.34
2016-08-20T01:47:53.166Z,1000.31
2016-08-20T01:48:52.606Z,1000.29
2016-08-20T01:49:52.554Z,1000.26
2016-08-20T01:50:52.518Z,1000.27
2016-08-20T01:51:52.616Z,1000.26
2016-08-20T01:52:52.953Z,1000.26
2016-08-20T01:53:52.754Z,1000.28
2016-08-20T01:54:53.098Z,1000.27
2016-08-20T01:55:53.019Z,1000.28
2016-08-20T01:56:53.344Z,1000.31
2016-08-20T01:57:53.199Z,1000.35
2016-08-20T01:58:53.339Z,1000.34
2016-08-20T01:59:54.663Z,1000.34
2016-08-20T02:00:52.925Z,1000.39
2016-08-20T02:01:52.752Z,1000.32
2016-08-20T02:02:53.323Z,1000.33
2016-08-20T02:03:53.192Z,1000.38
2016-08-20T02:04:53.164Z,1000.41
2016-08-20T02:05:53.169Z,1000.42
2016-08-20T02:06:53.349Z,1000.4
2016-08-20T02:07:53.236Z,1000.44
2016-08-20T02:08:53.457Z,1000.43
2016-08-20T02:09:53.126Z,1000.42
2016-08-20T02:10:53.171Z,1000.45
2016-08-20T02:11:53.150Z,1000.44
2016-08-20T02:12:53.542Z,1000.46
2016-08-20T02:13:52.970Z,1000.46
2016-08-20T02:14:52.974Z,1000.44
2016-08-20T02:15:53.247Z,1000.47
2016-08-20T02:16:53.198Z,1000.44
2016-08-20T02:17:53.450Z,1000.42
2016-08-20T02:18:53.677Z,1000.41
2016-08-20T02:19:53.688Z,1000.4
2016-08-20T02:20:53.275Z,1000.44
2016-08-20T02:21:53.289Z,1000.47
2016-08-20T02:22:53.906Z,1000.48
2016-08-20T02:23:53.459Z,1000.52
2016-08-20T02:24:54.087Z,1000.57
2016-08-20T02:25:53.430Z,1000.55
2016-08-20T02:26:53.557Z,1000.5
2016-08-20T02:27:53.565Z,1000.52
2016-08-20T02:28:54.042Z,1000.5
2016-08-20T02:29:55.015Z,1000.45
2016-08-20T02:30:53.912Z,1000.46
2016-08-20T02:31:53.850Z,1000.44
2016-08-20T02:32:53.535Z,1000.45
2016-08-20T02:33:53.969Z,1000.43
2016-08-20T02:34:53.974Z,1000.43
2016-08-20T02:35:53.944Z,1000.43
2016-08-20T02:36:54.246Z,1000.46
2016-08-20T02:37:54.242Z,1000.42
2016-08-20T02:38:54.037Z,1000.48
2016-08-20T02:39:55.035Z,1000.47
2016-08-20T02:40:53.917Z,1000.49
2016-08-20T02:41:54.379Z,1000.47
2016-08-20T02:42:54.578Z,1000.49
2016-08-20T02:43:54.007Z,1000.55
2016-08-20T02:44:54.058Z,1000.54
2016-08-20T02:45:54.089Z,1000.56
2016-08-20T02:46:54.479Z,1000.6
2016-08-20T02:47:54.224Z,1000.58
2016-08-20T02:48:54.589Z,1000.6
2016-08-20T02:49:54.378Z,1000.61
2016-08-20T02:50:54.434Z,1000.64
2016-08-20T02:51:54.142Z,1000.67
2016-08-20T02:52:54.665Z,1000.61
2016-08-20T02:53:54.231Z,1000.64
2016-08-20T02:54:54.519Z,1000.64
2016-08-20T02:55:54.511Z,1000.64
2016-08-20T02:56:54.473Z,1000.65
2016-08-20T02:57:54.817Z,1000.69
2016-08-20T02:58:54.194Z,1000.67
2016-08-20T02:59:54.461Z,1000.64
2016-08-20T03:00:54.393Z,1000.63
2016-08-20T03:01:54.328Z,1000.63
2016-08-20T03:02:55.067Z,1000.64
2016-08-20T03:03:54.526Z,1000.62
2016-08-20T03:04:55.398Z,1000.62
2016-08-20T03:05:54.654Z,1000.67
2016-08-20T03:06:54.750Z,1000.63
2016-08-20T03:07:55.004Z,1000.61
2016-08-20T03:08:54.433Z,1000.64
2016-08-20T03:09:54.445Z,1000.66
2016-08-20T03:10:54.917Z,1000.63
2016-08-20T03:11:54.549Z,1000.63
2016-08-20T03:12:54.733Z,1000.61
2016-08-20T03:13:54.743Z,1000.62
2016-08-20T03:14:54.977Z,1000.63
2016-08-20T03:15:54.660Z,1000.64
2016-08-20T03:16:54.731Z,1000.6
2016-08-20T03:17:54.951Z,1000.6
2016-08-20T03:18:54.960Z,1000.62
2016-08-20T03:19:55.196Z,1000.59
2016-08-20T03:20:54.801Z,1000.57
2016-08-20T03:21:55.269Z,1000.57
2016-08-20T03:22:55.287Z,1000.62
2016-08-20T03:23:55.118Z,1000.59
2016-08-20T03:24:55.185Z,1000.57
2016-08-20T03:25:55.226Z,1000.6
2016-08-20T03:26:56.025Z,1000.63
2016-08-20T03:27:55.824Z,1000.61
2016-08-20T03:28:55.197Z,1000.63
2016-08-20T03:29:55.083Z,1000.62
2016-08-20T03:30:55.217Z,1000.6
2016-08-20T03:31:55.292Z,1000.6
2016-08-20T03:32:55.153Z,1000.51
2016-08-20T03:33:55.718Z,1000.54
2016-08-20T03:34:55.053Z,1000.54
2016-08-20T03:35:55.482Z,1000.59
2016-08-20T03:36:56.151Z,1000.59
2016-08-20T03:37:55.569Z,1000.57
2016-08-20T03:38:55.718Z,1000.58
2016-08-20T03:39:55.448Z,1000.56
2016-08-20T03:40:55.997Z,1000.6
2016-08-20T03:41:55.380Z,1000.62
2016-08-20T03:42:55.427Z,1000.61
2016-08-20T03:43:55.839Z,1000.61
2016-08-20T03:44:56.099Z,1000.57
2016-08-20T03:45:55.577Z,1000.6
2016-08-20T03:46:55.815Z,1000.5
2016-08-20T03:47:56.169Z,1000.52
2016-08-20T03:48:55.404Z,1000.55
2016-08-20T03:49:55.838Z,1000.51
2016-08-20T03:50:55.899Z,1000.53
2016-08-20T03:51:55.822Z,1000.53
2016-08-20T03:52:55.929Z,1000.51
2016-08-20T03:53:56.361Z,1000.53
2016-08-20T03:54:56.092Z,1000.47
2016-08-20T03:55:55.768Z,1000.45
2016-08-20T03:56:56.324Z,1000.44
2016-08-20T03:57:56.163Z,1000.42
2016-08-20T03:58:55.799Z,1000.41
2016-08-20T03:59:56.342Z,1000.44
2016-08-20T04:00:56.679Z,1000.44
2016-08-20T04:01:55.991Z,1000.41
2016-08-20T04:02:56.110Z,1000.43
2016-08-20T04:03:55.880Z,1000.42
2016-08-20T04:04:56.091Z,1000.42
2016-08-20T04:05:55.858Z,1000.4
2016-08-20T04:06:56.071Z,1000.44
2016-08-20T04:07:56.128Z,1000.46
2016-08-20T04:08:56.505Z,1000.41
2016-08-20T04:09:56.677Z,1000.41
2016-08-20T04:10:56.593Z,1000.39
2016-08-20T04:11:56.567Z,1000.39
2016-08-20T04:12:56.063Z,1000.43
2016-08-20T04:13:56.495Z,1000.41
2016-08-20T04:14:56.558Z,1000.4
2016-08-20T04:15:56.302Z,1000.41
2016-08-20T04:16:56.484Z,1000.42
2016-08-20T04:17:56.644Z,1000.45
2016-08-20T04:18:56.702Z,1000.41
2016-08-20T04:19:56.936Z,1000.46
2016-08-20T04:20:57.086Z,1000.48
2016-08-20T04:21:56.358Z,1000.47
2016-08-20T04:22:56.095Z,1000.48
2016-08-20T04:23:56.993Z,1000.45
2016-08-20T04:24:56.717Z,1000.45
2016-08-20T04:25:56.875Z,1000.5
2016-08-20T04:26:56.856Z,1000.45
2016-08-20T04:27:56.538Z,1000.45
2016-08-20T04:28:56.639Z,1000.47
2016-08-20T04:29:57.022Z,1000.45
2016-08-20T04:30:56.473Z,1000.45
2016-08-20T04:31:57.700Z,1000.46
2016-08-20T04:32:56.601Z,1000.47
2016-08-20T04:33:56.980Z,1000.46
2016-08-20T04:34:56.978Z,1000.44
2016-08-20T04:35:56.565Z,1000.43
2016-08-20T04:36:56.737Z,1000.45
2016-08-20T04:37:57.176Z,1000.45
2016-08-20T04:38:57.037Z,1000.46
2016-08-20T04:39:56.909Z,1000.41
2016-08-20T04:40:57.412Z,1000.45
2016-08-20T04:41:57.295Z,1000.43
2016-08-20T04:42:57.166Z,1000.45
2016-08-20T04:43:58.033Z,1000.44
2016-08-20T04:44:57.165Z,1000.47
2016-08-20T04:45:57.086Z,1000.5
2016-08-20T04:46:57.354Z,1000.52
2016-08-20T04:47:57.172Z,1000.55
2016-08-20T04:48:57.256Z,1000.54
2016-08-20T04:49:57.138Z,1000.57
2016-08-20T04:50:57.351Z,1000.58
2016-08-20T04:51:57.355Z,1000.59
2016-08-20T04:52:57.339Z,1000.61
2016-08-20T04:53:57.322Z,1000.66
2016-08-20T04:54:57.487Z,1000.64
2016-08-20T04:55:57.586Z,1000.66
2016-08-20T04:56:57.513Z,1000.69
2016-08-20T04:57:57.515Z,1000.7
2016-08-20T04:58:57.805Z,1000.69
2016-08-20T04:59:57.454Z,1000.72
2016-08-20T05:00:57.306Z,1000.78
2016-08-20T05:01:57.592Z,1000.76
2016-08-20T05:02:57.496Z,1000.78
2016-08-20T05:03:57.841Z,1000.83
2016-08-20T05:04:57.447Z,1000.84
2016-08-20T05:05:57.718Z,1000.84
2016-08-20T05:06:57.745Z,1000.81
2016-08-20T05:07:57.642Z,1000.84
2016-08-20T05:08:57.398Z,1000.82
2016-08-20T05:09:57.769Z,1000.81
2016-08-20T05:10:58.184Z,1000.83
2016-08-20T05:11:58.232Z,1000.79
2016-08-20T05:12:57.779Z,1000.81
2016-08-20T05:13:58.232Z,1000.82
2016-08-20T05:14:57.838Z,1000.77
2016-08-20T05:15:57.956Z,1000.79
2016-08-20T05:16:57.709Z,1000.8
2016-08-20T05:17:58.309Z,1000.8
2016-08-20T05:18:58.146Z,1000.83
2016-08-20T05:19:57.930Z,1000.79
2016-08-20T05:20:57.956Z,1000.81
2016-08-20T05:21:58.217Z,1000.78
2016-08-20T05:22:58.115Z,1000.8
2016-08-20T05:23:58.290Z,1000.8
2016-08-20T05:24:58.012Z,1000.79
2016-08-20T05:25:58.185Z,1000.81
2016-08-20T05:26:57.997Z,1000.8
2016-08-20T05:27:58.487Z,1000.76
2016-08-20T05:28:58.164Z,1000.82
2016-08-20T05:29:58.101Z,1000.85
2016-08-20T05:30:58.507Z,1000.86
2016-08-20T05:31:58.302Z,1000.84
2016-08-20T05:32:58.296Z,1000.85
2016-08-20T05:33:58.210Z,1000.83
2016-08-20T05:34:58.124Z,1000.84
2016-08-20T05:35:58.587Z,1000.87
2016-08-20T05:36:58.782Z,1000.87
2016-08-20T05:37:58.481Z,1000.85
2016-08-20T05:38:58.847Z,1000.87
2016-08-20T05:39:59.309Z,1000.87
2016-08-20T05:40:58.535Z,1000.86
2016-08-20T05:41:58.977Z,1000.86
2016-08-20T05:42:58.337Z,1000.91
2016-08-20T05:43:59.030Z,1000.9
2016-08-20T05:44:58.505Z,1000.89
2016-08-20T05:45:59.235Z,1000.88
2016-08-20T05:46:58.835Z,1000.87
2016-08-20T05:47:59.138Z,1000.88
2016-08-20T05:48:59.061Z,1000.82
2016-08-20T05:49:59.215Z,1000.85
2016-08-20T05:50:59.177Z,1000.91
2016-08-20T05:51:58.610Z,1000.91
2016-08-20T05:52:59.492Z,1000.92
2016-08-20T05:53:58.899Z,1000.89
2016-08-20T05:54:59.142Z,1000.89
2016-08-20T05:55:59.292Z,1000.92
2016-08-20T05:56:59.749Z,1000.87
2016-08-20T05:57:58.939Z,1000.89
2016-08-20T05:59:00.074Z,1000.91
2016-08-20T05:59:59.149Z,1000.89
2016-08-20T06:00:59.171Z,1000.85
2016-08-20T06:01:59.236Z,1000.86
2016-08-20T06:02:59.716Z,1000.8
2016-08-20T06:03:59.285Z,1000.79
2016-08-20T06:04:59.099Z,1000.76
2016-08-20T06:05:59.200Z,1000.77
2016-08-20T06:06:59.533Z,1000.79
2016-08-20T06:07:59.529Z,1000.8
2016-08-20T06:08:59.458Z,1000.78
2016-08-20T06:10:00.739Z,1000.78
2016-08-20T06:10:59.770Z,1000.79
2016-08-20T06:11:59.438Z,1000.82
2016-08-20T06:12:59.690Z,1000.87
2016-08-20T06:13:59.839Z,1000.88
2016-08-20T06:14:59.174Z,1000.94
2016-08-20T06:15:59.957Z,1000.96
2016-08-20T06:16:59.768Z,1000.94
2016-08-20T06:17:59.782Z,1000.98
2016-08-20T06:18:59.417Z,1001.03
2016-08-20T06:19:59.543Z,1000.99
2016-08-20T06:20:59.388Z,1000.96
2016-08-20T06:21:59.508Z,1001.02
2016-08-20T06:22:59.400Z,1001.02
2016-08-20T06:23:59.469Z,1001.05
2016-08-20T06:24:59.920Z,1001.09
2016-08-20T06:25:59.686Z,1001.12
2016-08-20T06:26:59.542Z,1001.13
2016-08-20T06:27:59.527Z,1001.04
2016-08-20T06:28:59.630Z,1001.06
2016-08-20T06:29:59.636Z,1000.99
2016-08-20T06:30:59.582Z,1001
2016-08-20T06:31:59.807Z,1000.99
2016-08-20T06:32:59.586Z,1001.05
2016-08-20T06:33:59.614Z,1001.03
2016-08-20T06:34:59.583Z,1001.02
2016-08-20T06:35:59.606Z,1001.02
2016-08-20T06:37:00.958Z,1001.06
2016-08-20T06:37:59.865Z,1001.02
2016-08-20T06:39:00.036Z,1001.02
2016-08-20T06:40:00.090Z,1001.07
2016-08-20T06:41:00.039Z,1001.05
2016-08-20T06:42:00.015Z,1001.08
2016-08-20T06:43:00.610Z,1001.08
2016-08-20T06:44:00.137Z,1001.07
2016-08-20T06:45:00.215Z,1001.07
2016-08-20T06:46:00.098Z,1001.07
2016-08-20T06:47:00.426Z,1001.05
2016-08-20T06:48:01.018Z,1001.05
2016-08-20T06:49:00.239Z,1001.02
2016-08-20T06:50:00.184Z,1001.03
2016-08-20T06:51:00.252Z,1001.04
2016-08-20T06:52:00.358Z,1001.07
2016-08-20T06:53:00.149Z,1001.06
2016-08-20T06:54:00.561Z,1001.05
2016-08-20T06:55:00.381Z,1001.05
2016-08-20T06:56:00.866Z,1001.04
2016-08-20T06:57:00.664Z,1001.03
2016-08-20T06:58:00.634Z,1001
2016-08-20T06:59:00.409Z,1000.97
2016-08-20T07:00:00.901Z,1000.95
2016-08-20T07:01:00.383Z,1000.96
2016-08-20T07:02:00.290Z,1000.97
2016-08-20T07:03:00.914Z,1000.97
2016-08-20T07:04:00.602Z,1000.99
2016-08-20T07:05:00.564Z,1001
2016-08-20T07:06:00.684Z,1000.98
2016-08-20T07:07:01.109Z,1000.97
2016-08-20T07:08:00.947Z,1000.96
2016-08-20T07:09:00.998Z,1000.94
2016-08-20T07:10:01.101Z,1000.93
2016-08-20T07:11:01.174Z,1000.96
2016-08-20T07:12:01.489Z,1000.96
2016-08-20T07:13:01.135Z,1000.94
2016-08-20T07:14:01.159Z,1000.97
2016-08-20T07:15:00.932Z,1000.96
2016-08-20T07:16:01.425Z,1000.96
2016-08-20T07:17:01.383Z,1000.99
2016-08-20T07:18:00.853Z,1001.03
2016-08-20T07:19:01.390Z,1001.02
2016-08-20T07:20:01.336Z,1001.03
2016-08-20T07:21:01.401Z,1001.04
2016-08-20T07:22:01.907Z,1001.06
2016-08-20T07:23:00.999Z,1001.04
2016-08-20T07:24:01.402Z,1001.05
2016-08-20T07:25:01.111Z,1001.08
2016-08-20T07:26:00.975Z,1001.12
2016-08-20T07:27:01.276Z,1001.1
2016-08-20T07:28:01.457Z,1001.14
2016-08-20T07:29:01.756Z,1001.14
2016-08-20T07:30:01.183Z,1001.13
2016-08-20T07:31:01.522Z,1001.14
2016-08-20T07:32:01.704Z,1001.13
2016-08-20T07:33:01.370Z,1001.08
2016-08-20T07:34:01.301Z,1001.13
2016-08-20T07:35:01.627Z,1001.12
2016-08-20T07:36:02.442Z,1001.14
2016-08-20T07:37:01.541Z,1001.16
2016-08-20T07:38:01.555Z,1001.15
2016-08-20T07:39:02.066Z,1001.19
2016-08-20T07:40:01.409Z,1001.21
2016-08-20T07:41:01.856Z,1001.25
2016-08-20T07:42:02.365Z,1001.28
2016-08-20T07:43:01.989Z,1001.3
2016-08-20T07:44:01.841Z,1001.33
2016-08-20T07:45:01.504Z,1001.27
2016-08-20T07:46:01.882Z,1001.28
2016-08-20T07:47:01.827Z,1001.28
2016-08-20T07:48:01.785Z,1001.28
2016-08-20T07:49:01.746Z,1001.3
2016-08-20T07:50:02.118Z,1001.31
2016-08-20T07:51:02.339Z,1001.35
2016-08-20T07:52:01.744Z,1001.35
2016-08-20T07:53:01.848Z,1001.38
2016-08-20T07:54:02.113Z,1001.37
2016-08-20T07:55:02.241Z,1001.36
2016-08-20T07:56:02.251Z,1001.41
2016-08-20T07:57:03.346Z,1001.43
2016-08-20T07:58:01.854Z,1001.4
2016-08-20T07:59:02.530Z,1001.39
2016-08-20T08:00:02.573Z,1001.4
2016-08-20T08:01:02.243Z,1001.38
2016-08-20T08:02:02.475Z,1001.43
2016-08-20T08:03:02.231Z,1001.41
2016-08-20T08:04:02.206Z,1001.38
2016-08-20T08:05:02.694Z,1001.4
2016-08-20T08:06:02.645Z,1001.44
2016-08-20T08:07:02.283Z,1001.41
2016-08-20T08:08:02.953Z,1001.42
2016-08-20T08:09:02.419Z,1001.46
2016-08-20T08:10:02.377Z,1001.43
2016-08-20T08:11:02.564Z,1001.41
2016-08-20T08:12:02.999Z,1001.39
2016-08-20T08:13:02.262Z,1001.37
2016-08-20T08:14:02.432Z,1001.44
2016-08-20T08:15:02.522Z,1001.43
2016-08-20T08:16:02.683Z,1001.5
2016-08-20T08:17:02.591Z,1001.58
2016-08-20T08:18:03.470Z,1001.55
2016-08-20T08:19:02.463Z,1001.55
2016-08-20T08:20:02.885Z,1001.52
2016-08-20T08:21:03.111Z,1001.53
2016-08-20T08:22:03.070Z,1001.59
2016-08-20T08:23:02.677Z,1001.66
2016-08-20T08:24:03.769Z,1001.69
2016-08-20T08:25:03.069Z,1001.67
2016-08-20T08:26:02.916Z,1001.66
2016-08-20T08:27:02.939Z,1001.66
2016-08-20T08:28:02.629Z,1001.71
2016-08-20T08:29:03.082Z,1001.8
2016-08-20T08:30:03.429Z,1001.77
2016-08-20T08:31:03.197Z,1001.72
2016-08-20T08:32:03.184Z,1001.77
2016-08-20T08:33:03.211Z,1001.71
2016-08-20T08:34:03.470Z,1001.81
2016-08-20T08:35:03.357Z,1001.69
2016-08-20T08:36:03.177Z,1001.7
2016-08-20T08:37:03.924Z,1001.84
2016-08-20T08:38:03.760Z,1001.92
2016-08-20T08:39:03.526Z,1001.86
2016-08-20T08:40:03.445Z,1001.81
2016-08-20T08:41:03.332Z,1001.79
2016-08-20T08:42:03.445Z,1001.84
2016-08-20T08:43:03.467Z,1001.81
2016-08-20T08:44:03.462Z,1001.87
2016-08-20T08:45:03.887Z,1001.83
2016-08-20T08:46:03.246Z,1001.83
2016-08-20T08:47:04.226Z,1001.78
2016-08-20T08:48:03.644Z,1001.85
2016-08-20T08:49:04.057Z,1001.79
2016-08-20T08:50:03.539Z,1001.78
2016-08-20T08:51:03.596Z,1001.79
2016-08-20T08:52:03.949Z,1001.77
2016-08-20T08:53:03.596Z,1001.78
2016-08-20T08:54:04.138Z,1001.8
2016-08-20T08:55:03.765Z,1001.82
2016-08-20T08:56:03.779Z,1001.8
2016-08-20T08:57:04.224Z,1001.81
2016-08-20T08:58:03.993Z,1001.86
2016-08-20T08:59:03.769Z,1001.89
2016-08-20T09:00:03.739Z,1001.89
2016-08-20T09:01:03.885Z,1001.87
2016-08-20T09:02:04.259Z,1001.82
2016-08-20T09:03:03.948Z,1001.81
2016-08-20T09:04:03.727Z,1001.8
2016-08-20T09:05:03.890Z,1001.84
2016-08-20T09:06:03.669Z,1001.79
2016-08-20T09:07:03.993Z,1001.87
2016-08-20T09:08:04.680Z,1001.85
2016-08-20T09:09:04.322Z,1001.88
2016-08-20T09:10:04.629Z,1001.93
2016-08-20T09:11:04.585Z,1001.93
2016-08-20T09:12:05.500Z,1001.95
2016-08-20T09:13:04.140Z,1001.91
2016-08-20T09:14:04.381Z,1001.96
2016-08-20T09:15:04.581Z,1001.99
2016-08-20T09:16:04.388Z,1001.97
2016-08-20T09:17:04.668Z,1001.86
2016-08-20T09:18:04.652Z,1001.83
2016-08-20T09:19:04.343Z,1001.75
2016-08-20T09:20:04.405Z,1001.73
2016-08-20T09:21:04.553Z,1001.73
2016-08-20T09:22:04.800Z,1001.77
2016-08-20T09:23:04.571Z,1001.82
2016-08-20T09:24:04.589Z,1001.82
2016-08-20T09:25:04.969Z,1001.88
2016-08-20T09:26:04.582Z,1001.86
2016-08-20T09:27:05.387Z,1001.85
2016-08-20T09:28:04.737Z,1001.84
2016-08-20T09:29:05.024Z,1001.82
2016-08-20T09:30:04.750Z,1001.84
2016-08-20T09:31:04.528Z,1001.78
2016-08-20T09:32:05.042Z,1001.8
2016-08-20T09:33:04.923Z,1001.79
2016-08-20T09:34:04.639Z,1001.93
2016-08-20T09:35:05.674Z,1001.98
2016-08-20T09:36:04.921Z,1001.96
2016-08-20T09:37:04.947Z,1001.91
2016-08-20T09:38:04.921Z,1002.05
2016-08-20T09:39:05.067Z,1001.99
2016-08-20T09:40:04.948Z,1002.01
2016-08-20T09:41:05.668Z,1001.96
2016-08-20T09:42:05.236Z,1002.09
2016-08-20T09:43:05.040Z,1002.13
2016-08-20T09:44:05.820Z,1002
2016-08-20T09:45:05.394Z,1002.02
2016-08-20T09:46:05.971Z,1002.05
2016-08-20T09:47:05.619Z,1002.02
2016-08-20T09:48:05.613Z,1001.98
2016-08-20T09:49:05.300Z,1002.02
2016-08-20T09:50:05.755Z,1002
2016-08-20T09:51:05.794Z,1002.02
2016-08-20T09:52:05.879Z,1002.01
2016-08-20T09:53:05.564Z,1001.97
2016-08-20T09:54:05.507Z,1002.06
2016-08-20T09:55:05.412Z,1001.98
2016-08-20T09:56:05.924Z,1001.89
2016-08-20T09:57:05.773Z,1001.8
2016-08-20T09:58:05.523Z,1001.8
2016-08-20T09:59:05.572Z,1001.84
2016-08-20T10:00:05.697Z,1001.78
2016-08-20T10:01:06.739Z,1001.69
2016-08-20T10:02:06.197Z,1001.58
2016-08-20T10:03:06.230Z,1001.43
2016-08-20T10:04:06.360Z,1001.45
2016-08-20T10:05:07.096Z,1001.46
2016-08-20T10:06:06.725Z,1001.38
2016-08-20T10:07:05.829Z,1001.42
2016-08-20T10:08:06.178Z,1001.4
2016-08-20T10:09:06.085Z,1001.41
2016-08-20T10:10:05.992Z,1001.37
2016-08-20T10:11:06.040Z,1001.4
2016-08-20T10:12:06.187Z,1001.37
2016-08-20T10:13:06.435Z,1001.41
2016-08-20T10:14:06.853Z,1001.4
2016-08-20T10:15:06.736Z,1001.43
2016-08-20T10:16:06.984Z,1001.47
2016-08-20T10:17:06.770Z,1001.47
2016-08-20T10:18:06.735Z,1001.49
2016-08-20T10:19:07.022Z,1001.45
2016-08-20T10:20:07.218Z,1001.41
2016-08-20T10:21:06.716Z,1001.45
2016-08-20T10:22:07.787Z,1001.38
2016-08-20T10:23:06.921Z,1001.45
2016-08-20T10:24:06.725Z,1001.53
2016-08-20T10:25:06.479Z,1001.59
2016-08-20T10:26:06.489Z,1001.63
2016-08-20T10:27:06.453Z,1001.7
2016-08-20T10:28:07.197Z,1001.72
2016-08-20T10:29:06.529Z,1001.71
2016-08-20T10:30:06.489Z,1001.7
2016-08-20T10:31:06.852Z,1001.71
2016-08-20T10:32:06.837Z,1001.72
2016-08-20T10:33:06.793Z,1001.6
2016-08-20T10:34:06.919Z,1001.61
2016-08-20T10:35:07.395Z,1001.55
2016-08-20T10:36:06.652Z,1001.55
2016-08-20T10:37:06.887Z,1001.54
2016-08-20T10:38:06.907Z,1001.48
2016-08-20T10:39:07.496Z,1001.43
2016-08-20T10:40:07.617Z,1001.38
2016-08-20T10:41:06.811Z,1001.32
2016-08-20T10:42:07.275Z,1001.33
2016-08-20T10:43:06.896Z,1001.46
2016-08-20T10:44:07.054Z,1001.45
2016-08-20T10:45:07.724Z,1001.43
2016-08-20T10:46:07.355Z,1001.46
2016-08-20T10:47:07.493Z,1001.44
2016-08-20T10:48:07.249Z,1001.49
2016-08-20T10:49:07.434Z,1001.42
2016-08-20T10:50:07.410Z,1001.39
2016-08-20T10:51:07.633Z,1001.4
2016-08-20T10:52:07.800Z,1001.37
2016-08-20T10:53:07.365Z,1001.41
2016-08-20T10:54:07.870Z,1001.45
2016-08-20T10:55:07.394Z,1001.42
2016-08-20T10:56:08.081Z,1001.45
2016-08-20T10:57:07.593Z,1001.45
2016-08-20T10:58:08.020Z,1001.43
2016-08-20T10:59:07.790Z,1001.44
2016-08-20T11:00:07.730Z,1001.48
2016-08-20T11:01:07.535Z,1001.49
2016-08-20T11:02:08.097Z,1001.56
2016-08-20T11:03:09.079Z,1001.57
2016-08-20T11:04:07.670Z,1001.6
2016-08-20T11:05:08.466Z,1001.62
2016-08-20T11:06:07.944Z,1001.63
2016-08-20T11:07:08.035Z,1001.65
2016-08-20T11:08:08.170Z,1001.63
2016-08-20T11:09:07.835Z,1001.6
2016-08-20T11:10:08.002Z,1001.58
2016-08-20T11:11:07.905Z,1001.57
2016-08-20T11:12:07.779Z,1001.65
2016-08-20T11:13:08.237Z,1001.76
2016-08-20T11:14:07.971Z,1001.83
2016-08-20T11:15:08.066Z,1001.91
2016-08-20T11:16:08.775Z,1001.95
2016-08-20T11:17:08.181Z,1002.08
2016-08-20T11:18:08.399Z,1002.17
2016-08-20T11:19:08.298Z,1002.32
2016-08-20T11:20:08.226Z,1002.43
2016-08-20T11:21:08.346Z,1002.39
2016-08-20T11:22:08.103Z,1002.47
2016-08-20T11:23:08.519Z,1002.45
2016-08-20T11:24:08.466Z,1002.51
2016-08-20T11:25:08.304Z,1002.63
2016-08-20T11:26:09.236Z,1002.67
2016-08-20T11:27:08.747Z,1002.67
2016-08-20T11:28:08.937Z,1002.56
2016-08-20T11:29:09.240Z,1002.57
2016-08-20T11:30:08.413Z,1002.65
2016-08-20T11:31:08.942Z,1002.61
2016-08-20T11:32:08.597Z,1002.69
2016-08-20T11:33:08.700Z,1002.63
2016-08-20T11:34:08.786Z,1002.73
2016-08-20T11:35:09.155Z,1002.71
2016-08-20T11:36:08.476Z,1002.77
2016-08-20T11:37:08.771Z,1002.83
2016-08-20T11:38:08.808Z,1002.91
2016-08-20T11:39:09.390Z,1002.9
2016-08-20T11:40:08.630Z,1002.91
2016-08-20T11:41:08.928Z,1002.69
2016-08-20T11:42:08.752Z,1002.75
2016-08-20T11:43:08.921Z,1002.69
2016-08-20T11:44:09.110Z,1002.58
2016-08-20T11:45:09.294Z,1002.47
2016-08-20T11:46:08.786Z,1002.42
2016-08-20T11:47:08.982Z,1002.32
2016-08-20T11:48:09.146Z,1002.31
2016-08-20T11:49:08.960Z,1002.32
2016-08-20T11:50:09.079Z,1002.32
2016-08-20T11:51:08.937Z,1002.36
2016-08-20T11:52:09.130Z,1002.46
2016-08-20T11:53:09.282Z,1002.52
2016-08-20T11:54:09.403Z,1002.55
2016-08-20T11:55:09.200Z,1002.6
2016-08-20T11:56:09.667Z,1002.69
2016-08-20T11:57:09.437Z,1002.7
2016-08-20T11:58:10.147Z,1002.73
2016-08-20T11:59:09.411Z,1002.77
2016-08-20T12:00:09.896Z,1002.69
2016-08-20T12:01:09.981Z,1002.63
2016-08-20T12:02:09.561Z,1002.7
2016-08-20T12:03:10.333Z,1002.72
2016-08-20T12:04:09.443Z,1002.81
2016-08-20T12:05:09.912Z,1002.76
2016-08-20T12:06:09.393Z,1002.69
2016-08-20T12:07:09.741Z,1002.66
2016-08-20T12:08:09.538Z,1002.65
2016-08-20T12:09:09.788Z,1002.66